createdAt,value
2023-10-18T00:01:50.795Z,10.15
2023-10-18T00:04:23.846Z,9.57
2023-10-18T00:06:55.789Z,12.23
2023-10-18T00:09:42.270Z,14.68
2023-10-18T00:12:10.221Z,13.57
2023-10-18T00:14:40.427Z,15.05
2023-10-18T00:17:08.188Z,15.05
2023-10-18T00:19:36.320Z,17.30
2023-10-18T00:22:04.109Z,12.52
2023-10-18T00:24:32.100Z,16.17
2023-10-18T00:27:00.146Z,12.00
2023-10-18T00:29:27.882Z,12.77
2023-10-18T00:31:55.772Z,9.30
2023-10-18T00:34:23.683Z,9.80
2023-10-18T00:36:51.315Z,15.48
2023-10-18T00:39:33.907Z,9.65
2023-10-18T00:42:21.726Z,12.23
2023-10-18T00:44:59.138Z,9.20
2023-10-18T00:47:27.452Z,11.70
2023-10-18T00:49:55.272Z,10.15
2023-10-18T00:52:25.902Z,12.63
2023-10-18T00:54:54.928Z,11.90
2023-10-18T00:57:39.015Z,16.50
2023-10-18T01:00:14.124Z,17.75
2023-10-18T01:02:43.528Z,12.27
2023-10-18T01:05:17.228Z,10.20
2023-10-18T01:07:48.208Z,14.07
2023-10-18T01:10:18.375Z,12.27
2023-10-18T01:12:46.476Z,10.50
2023-10-18T01:15:20.707Z,13.65
2023-10-18T01:17:49.280Z,13.23
2023-10-18T01:20:34.908Z,14.32
2023-10-18T01:23:04.811Z,10.38
2023-10-18T01:25:32.642Z,14.18
2023-10-18T01:28:00.457Z,12.13
2023-10-18T01:30:30.540Z,10.60
2023-10-18T01:32:58.696Z,14.85
2023-10-18T01:35:26.315Z,9.18
2023-10-18T01:37:54.992Z,10.00
2023-10-18T01:40:24.290Z,14.23
2023-10-18T01:43:01.759Z,13.93
2023-10-18T01:45:38.522Z,11.93
2023-10-18T01:48:11.258Z,26.33
2023-10-18T01:50:40.688Z,9.70
2023-10-18T01:53:17.181Z,11.90
2023-10-18T01:55:58.484Z,13.52
2023-10-18T01:58:27.965Z,13.15
2023-10-18T02:00:58.376Z,13.57
2023-10-18T02:03:26.243Z,11.38
2023-10-18T02:05:54.166Z,12.77
2023-10-18T02:08:22.235Z,16.85
2023-10-18T02:10:51.663Z,13.48
2023-10-18T02:13:20.395Z,13.60
2023-10-18T02:15:49.702Z,9.18
2023-10-18T02:18:18.471Z,11.95
2023-10-18T02:20:53.145Z,9.30
2023-10-18T02:23:23.169Z,9.63
2023-10-18T02:25:51.316Z,15.95
2023-10-18T02:28:29.609Z,14.77
2023-10-18T02:30:59.478Z,12.10
2023-10-18T02:33:31.657Z,11.35
2023-10-18T02:35:59.316Z,15.95
2023-10-18T02:38:27.276Z,11.48
2023-10-18T02:40:58.116Z,22.00
2023-10-18T02:43:25.685Z,14.95
2023-10-18T02:45:53.902Z,12.05
2023-10-18T02:48:25.800Z,13.05
2023-10-18T02:50:55.381Z,17.15
2023-10-18T02:53:23.107Z,22.02
2023-10-18T02:55:59.561Z,26.13
2023-10-18T02:58:29.829Z,17.00
2023-10-18T03:01:04.351Z,17.15
2023-10-18T03:03:32.294Z,20.67
2023-10-18T03:06:07.017Z,22.23
2023-10-18T03:08:35.347Z,14.73
2023-10-18T03:11:05.277Z,16.88
2023-10-18T03:13:33.071Z,14.77
2023-10-18T03:16:07.529Z,18.38
2023-10-18T03:18:35.999Z,13.98
2023-10-18T03:21:07.108Z,19.83
2023-10-18T03:23:45.667Z,17.52
2023-10-18T03:26:13.695Z,15.88
2023-10-18T03:28:44.621Z,23.05
2023-10-18T03:31:35.376Z,19.25
2023-10-18T03:34:04.117Z,17.33
2023-10-18T03:36:46.393Z,18.55
2023-10-18T03:39:17.116Z,16.05
2023-10-18T03:41:51.406Z,20.73
2023-10-18T03:44:28.364Z,23.88
2023-10-18T03:47:06.453Z,24.33
2023-10-18T03:49:40.110Z,18.73
2023-10-18T03:54:46.650Z,24.30
2023-10-18T03:57:17.754Z,18.17
2023-10-18T03:59:46.661Z,25.60
2023-10-18T04:02:28.570Z,19.60
2023-10-18T04:04:59.866Z,17.98
2023-10-18T04:07:28.570Z,16.15
2023-10-18T04:10:13.420Z,20.65
2023-10-18T04:12:45.280Z,15.70
2023-10-18T04:15:23.475Z,21.27
2023-10-18T04:18:04.031Z,20.48
2023-10-18T04:20:34.843Z,18.67
2023-10-18T04:23:23.235Z,16.85
2023-10-18T04:26:04.982Z,17.38
2023-10-18T04:28:44.750Z,20.20
2023-10-18T04:31:23.071Z,21.42
2023-10-18T04:33:54.201Z,20.67
2023-10-18T04:36:23.035Z,17.83
2023-10-18T04:38:52.944Z,15.57
2023-10-18T04:41:25.371Z,23.00
2023-10-18T04:44:06.783Z,27.73
2023-10-18T04:46:39.138Z,14.68
2023-10-18T04:49:10.202Z,14.45
2023-10-18T04:51:40.924Z,16.23
2023-10-18T04:54:12.861Z,18.90
2023-10-18T04:56:43.580Z,17.25
2023-10-18T04:59:20.414Z,15.02
2023-10-18T05:01:55.431Z,19.23
2023-10-18T05:04:35.465Z,15.85
2023-10-18T05:07:12.137Z,18.65
2023-10-18T05:09:43.539Z,21.65
2023-10-18T05:12:22.362Z,28.58
2023-10-18T05:15:00.879Z,19.83
2023-10-18T05:17:37.171Z,20.80
2023-10-18T05:20:20.965Z,20.42
2023-10-18T05:22:54.368Z,17.50
2023-10-18T05:25:22.169Z,27.73
2023-10-18T05:28:16.451Z,18.02
2023-10-18T05:31:03.155Z,19.20
2023-10-18T05:33:40.362Z,15.07
2023-10-18T05:36:15.605Z,15.93
2023-10-18T05:38:53.347Z,19.58
2023-10-18T05:41:30.417Z,20.85
2023-10-18T05:44:02.187Z,17.63
2023-10-18T05:46:40.232Z,17.98
2023-10-18T05:49:26.736Z,19.17
2023-10-18T05:52:16.162Z,22.00
2023-10-18T05:54:47.822Z,24.92
2023-10-18T05:57:20.972Z,27.40
2023-10-18T05:59:50.329Z,21.27
2023-10-18T06:02:25.034Z,20.63
2023-10-18T06:04:56.474Z,20.67
2023-10-18T06:07:25.617Z,26.23
2023-10-18T06:09:58.996Z,25.27
2023-10-18T06:12:31.494Z,33.08
2023-10-18T06:15:14.438Z,24.33
2023-10-18T06:17:48.813Z,28.60
2023-10-18T06:20:29.538Z,20.15
2023-10-18T06:23:18.511Z,29.33
2023-10-18T06:25:46.771Z,19.27
2023-10-18T06:28:21.576Z,18.48
2023-10-18T06:30:55.064Z,29.60
2023-10-18T06:33:23.163Z,18.45
2023-10-18T06:35:54.964Z,33.00
2023-10-18T06:38:24.783Z,28.73
2023-10-18T06:41:06.106Z,18.35
2023-10-18T06:43:34.837Z,17.70
2023-10-18T06:46:05.636Z,17.90
2023-10-18T06:48:34.948Z,17.63
2023-10-18T06:51:08.090Z,18.75
2023-10-18T06:53:39.343Z,34.83
2023-10-18T06:56:20.898Z,20.60
2023-10-18T06:58:48.923Z,17.90
2023-10-18T07:01:21.504Z,21.83
2023-10-18T07:03:50.230Z,23.57
2023-10-18T07:06:25.759Z,20.85
2023-10-18T07:08:54.291Z,22.23
2023-10-18T07:11:31.424Z,33.70
2023-10-18T07:14:14.108Z,16.58
2023-10-18T07:16:43.732Z,25.75
2023-10-18T07:19:27.934Z,24.20
2023-10-18T07:21:58.254Z,26.95
2023-10-18T07:24:46.192Z,21.73
2023-10-18T07:27:16.979Z,19.48
2023-10-18T07:29:50.188Z,18.65
2023-10-18T07:32:22.010Z,18.63
2023-10-18T07:34:49.738Z,29.67
2023-10-18T07:37:26.523Z,27.45
2023-10-18T07:40:01.449Z,21.55
2023-10-18T07:42:36.045Z,25.45
2023-10-18T07:45:05.739Z,15.55
2023-10-18T07:47:33.721Z,22.33
2023-10-18T07:50:01.679Z,30.05
2023-10-18T07:52:29.580Z,20.83
2023-10-18T07:54:57.688Z,25.08
2023-10-18T07:57:34.880Z,20.63
2023-10-18T08:00:35.859Z,27.52
2023-10-18T08:03:06.692Z,25.20
2023-10-18T08:05:47.725Z,32.75
2023-10-18T08:08:15.388Z,19.05
2023-10-18T08:10:44.346Z,20.88
2023-10-18T08:13:17.609Z,22.90
2023-10-18T08:15:52.526Z,22.33
2023-10-18T08:18:23.239Z,20.92
2023-10-18T08:20:51.094Z,19.70
2023-10-18T08:23:27.543Z,22.92
2023-10-18T08:26:07.469Z,20.80
2023-10-18T08:28:47.256Z,21.67
2023-10-18T08:31:28.283Z,21.67
2023-10-18T08:33:57.512Z,23.55
2023-10-18T08:36:31.121Z,20.23
2023-10-18T08:39:03.032Z,17.30
2023-10-18T08:41:37.978Z,16.45
2023-10-18T08:44:10.075Z,22.50
2023-10-18T08:46:42.916Z,20.90
2023-10-18T08:49:14.549Z,25.53
2023-10-18T08:51:45.686Z,18.10
2023-10-18T08:54:23.539Z,19.48
2023-10-18T08:56:53.193Z,38.45
2023-10-18T08:59:21.565Z,17.67
2023-10-18T09:02:13.128Z,16.77
2023-10-18T09:04:46.016Z,16.05
2023-10-18T09:07:44.268Z,19.67
2023-10-18T09:10:35.053Z,16.05
2023-10-18T09:13:17.394Z,17.42
2023-10-18T09:16:01.320Z,20.90
2023-10-18T09:18:36.154Z,16.65
2023-10-18T09:21:19.638Z,23.05
2023-10-18T09:23:50.320Z,15.60
2023-10-18T09:26:27.579Z,19.67
2023-10-18T09:28:57.788Z,22.42
2023-10-18T09:31:25.897Z,19.77
2023-10-18T09:33:58.065Z,23.88
2023-10-18T09:36:28.493Z,20.05
2023-10-18T09:38:58.996Z,27.65
2023-10-18T09:41:32.732Z,19.80
2023-10-18T09:46:31.958Z,22.23
2023-10-18T09:49:01.334Z,22.67
2023-10-18T09:51:30.928Z,17.30
2023-10-18T09:53:58.994Z,21.50
2023-10-18T09:56:34.477Z,20.25
2023-10-18T09:59:09.673Z,18.98
2023-10-18T10:01:44.590Z,25.30
2023-10-18T10:04:16.316Z,24.27
2023-10-18T10:07:16.380Z,23.00
2023-10-18T10:09:47.991Z,20.40
2023-10-18T10:12:18.978Z,21.48
2023-10-18T10:14:48.861Z,19.50
2023-10-18T10:17:20.552Z,27.13
2023-10-18T10:19:53.926Z,26.40
2023-10-18T10:22:26.045Z,20.92
2023-10-18T10:25:25.619Z,31.08
2023-10-18T10:28:20.285Z,23.10
2023-10-18T10:30:48.421Z,25.92
2023-10-18T10:33:16.459Z,21.45
2023-10-18T10:35:47.983Z,25.10
2023-10-18T10:38:20.348Z,26.80
2023-10-18T10:40:50.056Z,25.13
2023-10-18T10:43:21.782Z,18.77
2023-10-18T10:45:49.803Z,19.83
2023-10-18T10:48:30.153Z,27.08
2023-10-18T10:51:34.229Z,15.52
2023-10-18T10:54:02.842Z,28.85
2023-10-18T10:56:36.522Z,21.70
2023-10-18T10:59:09.350Z,18.98
2023-10-18T11:01:41.369Z,23.45
2023-10-18T11:04:58.942Z,19.90
2023-10-18T11:07:29.419Z,29.65
2023-10-18T11:10:07.963Z,22.95
2023-10-18T11:12:35.935Z,22.45
2023-10-18T11:15:05.716Z,19.40
2023-10-18T11:17:37.279Z,29.77
2023-10-18T11:20:19.485Z,29.00
2023-10-18T11:22:49.222Z,21.88
2023-10-18T11:25:24.250Z,24.45
2023-10-18T11:27:52.233Z,21.60
2023-10-18T11:30:22.652Z,19.05
2023-10-18T11:32:52.516Z,17.60
2023-10-18T11:35:47.409Z,32.05
2023-10-18T11:38:21.045Z,26.15
2023-10-18T11:43:29.197Z,25.25
2023-10-18T11:46:08.122Z,22.10
2023-10-18T11:48:37.441Z,23.50
2023-10-18T11:51:07.596Z,25.73
2023-10-18T11:53:36.610Z,25.70
2023-10-18T11:56:13.069Z,21.52
2023-10-18T11:59:00.509Z,18.98
2023-10-18T12:01:34.109Z,19.33
2023-10-18T12:06:30.231Z,29.02
2023-10-18T12:09:13.405Z,16.15
2023-10-18T12:11:42.542Z,18.52
2023-10-18T12:14:10.201Z,24.35
2023-10-18T12:16:39.246Z,19.55
2023-10-18T12:19:08.508Z,18.05
2023-10-18T12:21:36.261Z,21.10
2023-10-18T12:24:11.663Z,29.75
2023-10-18T12:26:41.318Z,27.52
2023-10-18T12:29:16.890Z,23.17
2023-10-18T12:31:54.067Z,22.27
2023-10-18T12:34:30.229Z,24.08
2023-10-18T12:36:59.714Z,25.23
2023-10-18T12:39:27.574Z,17.33
2023-10-18T12:41:56.635Z,26.23
2023-10-18T12:44:26.770Z,24.08
2023-10-18T12:46:57.439Z,21.38
2023-10-18T12:49:25.281Z,37.25
2023-10-18T12:51:59.867Z,29.17
2023-10-18T12:54:37.968Z,22.48
2023-10-18T12:57:15.444Z,24.45
2023-10-18T13:00:09.506Z,26.23
2023-10-18T13:03:12.148Z,29.23
2023-10-18T13:05:44.970Z,24.13
2023-10-18T13:08:24.219Z,20.67
2023-10-18T13:11:11.031Z,23.33
2023-10-18T13:13:39.496Z,26.13
2023-10-18T13:16:14.778Z,25.58
2023-10-18T13:18:43.302Z,23.52
2023-10-18T13:21:13.132Z,20.42
2023-10-18T13:23:47.425Z,24.90
2023-10-18T13:26:21.797Z,25.48
2023-10-18T13:28:52.858Z,20.33
2023-10-18T13:31:24.234Z,33.92
2023-10-18T13:33:53.863Z,21.73
2023-10-18T13:36:23.173Z,27.25
2023-10-18T13:38:52.503Z,23.52
2023-10-18T13:41:20.597Z,23.00
2023-10-18T13:43:48.909Z,30.52
2023-10-18T13:46:24.628Z,38.92
2023-10-18T13:48:52.569Z,34.97
2023-10-18T13:51:21.106Z,32.33
2023-10-18T13:53:49.896Z,21.27
2023-10-18T13:56:19.442Z,23.95
2023-10-18T13:58:48.039Z,33.35
2023-10-18T14:01:20.221Z,31.23
2023-10-18T14:03:51.037Z,29.83
2023-10-18T14:06:20.216Z,23.90
2023-10-18T14:08:48.757Z,30.58
2023-10-18T14:11:19.123Z,41.78
2023-10-18T14:13:49.624Z,36.35
2023-10-18T14:16:20.299Z,30.38
2023-10-18T14:18:49.793Z,53.25
2023-10-18T14:21:17.478Z,21.38
2023-10-18T14:23:49.013Z,26.92
2023-10-18T14:26:18.596Z,37.67
2023-10-18T14:28:46.664Z,29.75
2023-10-18T14:31:16.419Z,40.25
2023-10-18T14:33:57.477Z,43.80
2023-10-18T14:36:33.850Z,33.90
2023-10-18T14:39:04.834Z,26.75
2023-10-18T14:41:33.952Z,47.15
2023-10-18T14:44:02.652Z,32.97
2023-10-18T14:46:32.294Z,51.92
2023-10-18T14:49:01.757Z,36.78
2023-10-18T14:51:30.378Z,46.20
2023-10-18T14:53:58.692Z,67.32
2023-10-18T14:56:26.481Z,35.17
2023-10-18T14:58:59.050Z,49.17
2023-10-18T15:01:27.043Z,32.83
2023-10-18T15:03:54.942Z,39.60
2023-10-18T15:06:25.598Z,28.67
2023-10-18T15:08:56.463Z,57.67
2023-10-18T15:11:24.376Z,46.28
2023-10-18T15:13:52.059Z,38.83
2023-10-18T15:16:20.456Z,38.90
2023-10-18T15:18:49.372Z,41.97
2023-10-18T15:21:18.797Z,33.03
2023-10-18T15:23:47.026Z,38.00
2023-10-18T15:26:18.267Z,24.88
2023-10-18T15:28:51.264Z,37.67
2023-10-18T15:31:19.787Z,30.77
2023-10-18T15:33:47.836Z,27.33
2023-10-18T15:36:25.123Z,26.80
2023-10-18T15:38:58.052Z,33.13
2023-10-18T15:41:27.190Z,38.47
2023-10-18T15:44:01.358Z,29.73
2023-10-18T15:46:34.831Z,32.38
2023-10-18T15:49:03.193Z,31.60
2023-10-18T15:51:33.210Z,35.97
2023-10-18T15:54:04.236Z,32.13
2023-10-18T15:56:34.777Z,30.10
2023-10-18T15:59:05.174Z,29.83
2023-10-18T16:01:46.591Z,34.53
2023-10-18T16:04:20.760Z,28.50
2023-10-18T16:06:50.552Z,40.88
2023-10-18T16:09:19.300Z,27.92
2023-10-18T16:11:47.221Z,28.92
2023-10-18T16:14:15.200Z,39.42
2023-10-18T16:16:43.277Z,42.25
2023-10-18T16:19:12.086Z,31.60
2023-10-18T16:21:43.219Z,34.47
2023-10-18T16:24:11.276Z,32.65
2023-10-18T16:26:38.950Z,32.97
2023-10-18T16:29:07.822Z,29.45
2023-10-18T16:31:37.265Z,33.72
2023-10-18T16:34:06.895Z,32.30
2023-10-18T16:36:39.227Z,36.38
2023-10-18T16:39:06.973Z,30.15
2023-10-18T16:41:34.989Z,34.30
2023-10-18T16:44:03.048Z,41.03
2023-10-18T16:46:31.954Z,36.78
2023-10-18T16:49:00.776Z,36.28
2023-10-18T16:51:29.385Z,42.50
2023-10-18T16:53:57.302Z,38.50
2023-10-18T16:56:26.992Z,33.25
2023-10-18T16:58:58.206Z,39.22
2023-10-18T17:01:26.543Z,37.38
2023-10-18T17:03:54.303Z,36.78
2023-10-18T17:06:22.803Z,37.58
2023-10-18T17:08:50.548Z,35.05
2023-10-18T17:11:19.634Z,41.72
2023-10-18T17:13:49.216Z,44.17
2023-10-18T17:16:18.846Z,37.58
2023-10-18T17:18:46.964Z,43.50
2023-10-18T17:21:20.141Z,36.92
2023-10-18T17:26:18.678Z,42.80
2023-10-18T17:28:50.534Z,39.90
2023-10-18T17:31:21.424Z,42.10
2023-10-18T17:33:51.033Z,42.38
2023-10-18T17:36:20.037Z,38.67
2023-10-18T17:38:48.434Z,42.28
2023-10-18T17:41:16.218Z,42.17
2023-10-18T17:43:44.462Z,42.33
2023-10-18T17:46:15.377Z,43.33
2023-10-18T17:48:44.017Z,36.70
2023-10-18T17:51:11.740Z,42.63
2023-10-18T17:53:39.839Z,39.13
2023-10-18T17:56:13.259Z,44.58
2023-10-18T17:58:42.915Z,42.60
2023-10-18T18:01:22.270Z,41.70
2023-10-18T18:03:53.708Z,47.90
2023-10-18T18:06:22.118Z,42.22
2023-10-18T18:08:50.717Z,35.67
2023-10-18T18:11:26.716Z,39.65
2023-10-18T18:13:54.750Z,46.33
2023-10-18T18:16:22.824Z,42.42
2023-10-18T18:18:52.798Z,47.20
2023-10-18T18:21:22.828Z,49.33
2023-10-18T18:23:53.467Z,53.08
2023-10-18T18:26:23.862Z,43.95
2023-10-18T18:28:52.237Z,47.33
2023-10-18T18:31:20.527Z,53.92
2023-10-18T18:33:50.703Z,46.45
2023-10-18T18:36:18.274Z,51.67
2023-10-18T18:38:45.910Z,53.50
2023-10-18T18:41:15.767Z,44.67
2023-10-18T18:43:43.889Z,57.88
2023-10-18T18:46:17.991Z,54.95
2023-10-18T18:48:52.256Z,50.75
2023-10-18T18:51:19.844Z,51.60
2023-10-18T18:53:47.574Z,51.53
2023-10-18T18:56:15.229Z,51.15
2023-10-18T18:58:42.959Z,50.83
2023-10-18T19:01:11.478Z,51.75
2023-10-18T19:03:39.195Z,46.22
2023-10-18T19:06:07.744Z,47.80
2023-10-18T19:08:35.281Z,48.20
2023-10-18T19:11:03.049Z,49.00
2023-10-18T19:13:30.794Z,59.08
2023-10-18T19:16:08.424Z,45.25
2023-10-18T19:18:36.581Z,56.50
2023-10-18T19:21:12.197Z,59.38
2023-10-18T19:23:40.082Z,63.95
2023-10-18T19:26:18.158Z,53.63
2023-10-18T19:28:47.775Z,56.72
2023-10-18T19:31:18.140Z,54.95
2023-10-18T19:33:48.057Z,49.22
2023-10-18T19:36:21.255Z,52.13
2023-10-18T19:38:50.154Z,56.05
2023-10-18T19:41:21.391Z,51.05
2023-10-18T19:43:50.593Z,48.58
2023-10-18T19:46:18.719Z,52.53
2023-10-18T19:48:48.843Z,50.90
2023-10-18T19:51:17.901Z,50.40
2023-10-18T19:53:46.457Z,56.95
2023-10-18T19:56:16.474Z,51.65
2023-10-18T19:58:45.351Z,47.40
2023-10-18T20:01:14.336Z,50.67
2023-10-18T20:03:43.082Z,49.60
2023-10-18T20:06:11.911Z,46.63
2023-10-18T20:08:41.670Z,47.13
2023-10-18T20:11:12.015Z,45.28
2023-10-18T20:13:40.971Z,45.83
2023-10-18T20:16:14.141Z,49.70
2023-10-18T20:18:43.568Z,47.80
2023-10-18T20:21:14.904Z,48.55
2023-10-18T20:23:43.116Z,41.17
2023-10-18T20:26:16.785Z,38.03
2023-10-18T20:28:44.970Z,44.72
2023-10-18T20:31:13.306Z,42.90
2023-10-18T20:33:41.718Z,42.05
2023-10-18T20:36:09.707Z,42.95
2023-10-18T20:38:38.175Z,43.30
2023-10-18T20:41:05.924Z,43.15
2023-10-18T20:43:37.269Z,51.50
2023-10-18T20:46:19.158Z,44.10
2023-10-18T20:48:50.859Z,44.22
2023-10-18T20:51:20.056Z,41.90
2023-10-18T20:56:23.383Z,44.35
2023-10-18T20:58:56.711Z,42.55
2023-10-18T21:01:36.031Z,51.67
2023-10-18T21:04:07.461Z,47.33
2023-10-18T21:06:39.903Z,55.13
2023-10-18T21:09:14.049Z,52.70
2023-10-18T21:11:45.285Z,50.45
2023-10-18T21:14:16.816Z,47.90
2023-10-18T21:16:46.455Z,52.75
2023-10-18T21:19:15.115Z,52.22
2023-10-18T21:21:43.334Z,54.38
2023-10-18T21:24:12.578Z,49.85
2023-10-18T21:26:41.452Z,52.47
2023-10-18T21:29:10.031Z,56.25
2023-10-18T21:31:38.878Z,66.53
2023-10-18T21:34:06.682Z,63.83
2023-10-18T21:36:37.548Z,60.25
2023-10-18T21:39:07.746Z,63.42
2023-10-18T21:41:36.372Z,63.38
2023-10-18T21:44:05.730Z,59.63
2023-10-18T21:46:36.915Z,68.00
2023-10-18T21:49:04.773Z,63.00
2023-10-18T21:51:32.712Z,65.97
2023-10-18T21:54:00.928Z,57.28
2023-10-18T21:56:29.338Z,55.17
2023-10-18T21:58:57.914Z,58.90
2023-10-18T22:01:40.795Z,56.58
2023-10-18T22:04:09.757Z,60.60
2023-10-18T22:06:40.524Z,57.45
2023-10-18T22:09:27.706Z,53.97
2023-10-18T22:11:55.604Z,49.97
2023-10-18T22:14:27.163Z,54.67
2023-10-18T22:16:56.045Z,54.03
2023-10-18T22:19:31.896Z,50.63
2023-10-18T22:22:13.534Z,49.60
2023-10-18T22:24:48.438Z,51.25
2023-10-18T22:27:27.722Z,53.58
2023-10-18T22:29:55.844Z,54.17
2023-10-18T22:32:34.710Z,50.60
2023-10-18T22:35:10.802Z,57.28
2023-10-18T22:37:43.436Z,54.50
2023-10-18T22:40:18.644Z,61.90
2023-10-18T22:42:51.005Z,68.70
2023-10-18T22:45:26.792Z,59.95
2023-10-18T22:48:08.237Z,62.15
2023-10-18T22:50:37.226Z,61.53
2023-10-18T22:53:18.604Z,60.22
2023-10-18T22:56:00.289Z,56.15
2023-10-18T22:58:33.123Z,58.95
2023-10-18T23:01:03.221Z,56.80
2023-10-18T23:03:33.896Z,64.03
2023-10-18T23:06:03.717Z,57.95
2023-10-18T23:08:38.457Z,55.05
2023-10-18T23:11:27.333Z,55.28
2023-10-18T23:13:56.728Z,55.03
2023-10-18T23:16:42.048Z,52.13
2023-10-18T23:19:31.242Z,46.78
2023-10-18T23:22:16.341Z,54.95
2023-10-18T23:24:49.342Z,56.78
2023-10-18T23:27:38.423Z,58.17
2023-10-18T23:30:32.900Z,58.53
2023-10-18T23:33:03.364Z,49.22
2023-10-18T23:35:47.085Z,55.47
2023-10-18T23:38:33.487Z,61.42
2023-10-18T23:41:12.108Z,53.53
2023-10-18T23:43:54.047Z,53.50
2023-10-18T23:46:49.115Z,54.70
2023-10-18T23:49:27.963Z,61.20
2023-10-18T23:51:57.267Z,61.80
2023-10-18T23:54:31.595Z,57.53
2023-10-18T23:57:11.945Z,64.70
2023-10-18T23:59:41.102Z,61.00
